Time;durP1;ratioP1;P1;durP2;ratioP2;P2;SDS_P1;SDS_P2;PMS_P1;PMS_P2;Temp;Humidity;BMP_temperature;BMP_pressure;BME280_temperature;BME280_humidity;BME280_pressure;Samples;Min_cycle;Max_cycle;Signal;HPM_P1;HPM_P2
2021/06/08 00:00:03;;;;;;;25.85;12.07;;;17.80;99.90;;;;;;1869509;77;21071;-73
2021/06/08 00:02:29;;;;;;;24.20;11.05;;;17.80;99.90;;;;;;1869531;77;21070;-73
2021/06/08 00:04:55;;;;;;;22.37;11.20;;;17.80;99.90;;;;;;1869591;77;21114;-74
2021/06/08 00:07:22;;;;;;;20.15;11.18;;;17.70;99.90;;;;;;1869466;77;21562;-73
2021/06/08 00:09:52;;;;;;;29.82;13.22;;;17.80;99.90;;;;;;1869332;77;21153;-72
2021/06/08 00:12:21;;;;;;;21.50;11.57;;;17.80;99.90;;;;;;1869494;77;21044;-72
2021/06/08 00:14:47;;;;;;;19.60;11.30;;;17.70;99.90;;;;;;1869480;77;21087;-73
2021/06/08 00:17:13;;;;;;;20.60;11.70;;;17.70;99.90;;;;;;1866736;76;21079;-74
2021/06/08 00:19:40;;;;;;;21.27;10.85;;;17.80;99.90;;;;;;1869630;77;21075;-72
2021/06/08 00:22:06;;;;;;;19.00;10.58;;;17.80;99.90;;;;;;1878258;75;21211;-73
2021/06/08 00:24:32;;;;;;;21.52;10.88;;;17.80;99.90;;;;;;1847785;77;21063;-73
2021/06/08 00:26:58;;;;;;;18.70;11.33;;;17.80;99.90;;;;;;1869511;77;21071;-73
2021/06/08 00:29:24;;;;;;;23.83;11.55;;;17.80;99.90;;;;;;1869405;77;21070;-72
2021/06/08 00:31:50;;;;;;;17.73;10.63;;;17.80;99.90;;;;;;1869569;77;21036;-73
2021/06/08 00:34:19;;;;;;;20.25;10.63;;;17.80;99.90;;;;;;1869460;77;21148;-73
2021/06/08 00:36:47;;;;;;;18.20;11.10;;;17.80;99.90;;;;;;1869060;77;21100;-72
2021/06/08 00:39:12;;;;;;;21.75;10.75;;;17.70;99.90;;;;;;1868996;76;21508;-73
2021/06/08 00:41:42;;;;;;;19.65;11.33;;;17.80;99.90;;;;;;1869554;77;21484;-73
2021/06/08 00:44:16;;;;;;;18.70;9.98;;;17.80;99.90;;;;;;1869901;77;21047;-72
2021/06/08 00:46:43;;;;;;;20.20;11.33;;;17.70;99.90;;;;;;1869708;77;21068;-73
2021/06/08 00:49:10;;;;;;;22.98;11.35;;;17.70;99.90;;;;;;1869623;77;21519;-72
2021/06/08 00:51:36;;;;;;;20.02;11.08;;;17.70;99.90;;;;;;1869400;77;21118;-74
2021/06/08 00:56:48;;;;;;;17.90;9.63;;;17.70;99.90;;;;;;1886840;75;21085;-72
2021/06/08 00:59:24;;;;;;;;;;;;;;;;;;;;;
2021/06/08 01:01:41;;;;;;;22.60;10.95;;;17.70;99.90;;;;;;1877234;76;21095;-73
2021/06/08 01:04:11;;;;;;;19.82;10.28;;;17.70;99.90;;;;;;1882298;76;21086;-73
2021/06/08 01:06:37;;;;;;;18.82;11.22;;;17.80;99.90;;;;;;1882358;76;21588;-73
2021/06/08 01:09:03;;;;;;;21.97;10.48;;;17.70;99.90;;;;;;1882343;76;21078;-73
2021/06/08 01:11:29;;;;;;;21.35;11.88;;;17.70;99.90;;;;;;1882248;76;21099;-74
2021/06/08 01:13:55;;;;;;;22.95;11.05;;;17.70;99.90;;;;;;1882450;75;21047;-73
2021/06/08 01:16:22;;;;;;;22.55;11.78;;;17.60;99.90;;;;;;1882232;76;21107;-73
2021/06/08 01:18:48;;;;;;;20.92;11.80;;;17.60;99.90;;;;;;1882567;76;21148;-73
2021/06/08 01:21:14;;;;;;;23.12;11.75;;;17.60;99.90;;;;;;1882342;75;21138;-72
2021/06/08 01:23:42;;;;;;;23.42;11.35;;;17.60;99.90;;;;;;1882500;75;21168;-73
2021/06/08 01:26:08;;;;;;;21.10;11.12;;;17.70;99.90;;;;;;1882348;76;21180;-73
2021/06/08 01:28:34;;;;;;;19.75;11.38;;;17.60;99.90;;;;;;1882474;76;21125;-74
2021/06/08 01:31:03;;;;;;;20.60;10.15;;;17.60;99.90;;;;;;1882480;76;21168;-73
2021/06/08 01:33:30;;;;;;;19.57;10.60;;;17.60;99.90;;;;;;1882277;75;21091;-73
2021/06/08 01:35:56;;;;;;;21.33;10.82;;;17.60;99.90;;;;;;1882586;76;21136;-73
2021/06/08 01:38:22;;;;;;;20.00;10.30;;;17.70;99.90;;;;;;1882371;76;21114;-73
2021/06/08 01:40:48;;;;;;;25.77;11.05;;;17.60;99.90;;;;;;1882567;76;21137;-73
2021/06/08 01:43:20;;;;;;;22.80;11.03;;;17.70;99.90;;;;;;1882412;75;21169;-73
2021/06/08 01:45:46;;;;;;;23.70;11.48;;;17.80;99.90;;;;;;1883837;76;21099;-71
2021/06/08 01:48:12;;;;;;;24.85;11.78;;;17.70;99.90;;;;;;1885611;76;21153;-72
2021/06/08 01:50:38;;;;;;;21.95;10.95;;;17.70;99.90;;;;;;1883327;76;21101;-74
2021/06/08 01:53:04;;;;;;;21.17;10.58;;;17.70;99.90;;;;;;1882875;76;21251;-73
2021/06/08 01:55:31;;;;;;;21.70;11.00;;;17.70;99.90;;;;;;1882607;76;21071;-74
2021/06/08 01:58:00;;;;;;;21.65;11.33;;;17.70;99.90;;;;;;1882497;76;21085;-73
2021/06/08 02:00:26;;;;;;;24.15;11.25;;;17.70;99.90;;;;;;1882556;76;21169;-72
2021/06/08 02:02:53;;;;;;;16.82;9.83;;;17.70;99.90;;;;;;1882475;76;21078;-73
2021/06/08 02:05:22;;;;;;;22.80;10.70;;;17.70;99.90;;;;;;1882437;76;21525;-72
2021/06/08 02:07:48;;;;;;;23.38;10.95;;;17.70;99.90;;;;;;1882542;75;21047;-72
2021/06/08 02:10:14;;;;;;;19.27;10.48;;;17.70;99.90;;;;;;1882418;76;21110;-73
2021/06/08 02:12:40;;;;;;;17.00;9.45;;;17.60;99.90;;;;;;1882430;76;21074;-73
2021/06/08 02:15:06;;;;;;;19.07;10.48;;;17.70;99.90;;;;;;1882562;76;21047;-73
2021/06/08 02:17:32;;;;;;;21.50;10.72;;;17.70;99.90;;;;;;1860512;76;21082;-72
2021/06/08 02:20:01;;;;;;;20.70;10.40;;;17.60;99.90;;;;;;1882569;76;21136;-73
2021/06/08 02:22:26;;;;;;;19.87;10.28;;;17.60;99.90;;;;;;1881119;76;21509;-73
2021/06/08 02:24:52;;;;;;;18.77;10.68;;;17.70;99.90;;;;;;1880075;76;21510;-73
2021/06/08 02:27:20;;;;;;;20.20;10.35;;;17.60;99.90;;;;;;1882754;76;21144;-73
2021/06/08 02:29:46;;;;;;;18.75;10.58;;;17.60;99.90;;;;;;1882678;76;21447;-73
2021/06/08 02:32:15;;;;;;;17.98;10.28;;;17.60;99.90;;;;;;1882410;75;21082;-74
2021/06/08 02:34:44;;;;;;;16.45;9.90;;;17.60;99.90;;;;;;1882465;76;21140;-73
2021/06/08 02:37:10;;;;;;;22.13;10.38;;;17.70;99.90;;;;;;1882004;76;21609;-73
2021/06/08 02:39:40;;;;;;;21.77;10.88;;;17.60;99.90;;;;;;1881213;76;21095;-74
2021/06/08 02:42:11;;;;;;;22.87;11.30;;;17.60;99.90;;;;;;1877497;76;21199;-73
2021/06/08 02:44:32;;;;;;;22.80;10.25;;;17.60;99.90;;;;;;1879044;76;21557;-73
2021/06/08 02:46:59;;;;;;;20.35;11.50;;;17.60;99.90;;;;;;1882427;76;21101;-73
2021/06/08 02:49:31;;;;;;;16.57;10.35;;;17.50;99.90;;;;;;1882526;76;21142;-73
2021/06/08 02:51:55;;;;;;;17.92;9.83;;;17.60;99.90;;;;;;1882160;76;21177;-73
2021/06/08 02:54:21;;;;;;;20.88;10.28;;;17.60;99.90;;;;;;1882431;76;21164;-73
2021/06/08 02:56:48;;;;;;;19.45;10.25;;;17.50;99.90;;;;;;1882537;76;21082;-73
2021/06/08 02:59:18;;;;;;;25.45;11.57;;;17.50;99.90;;;;;;1882451;75;21163;-73
2021/06/08 03:01:44;;;;;;;29.48;11.22;;;17.50;99.90;;;;;;1881871;75;21119;-74
2021/06/08 03:04:11;;;;;;;20.08;10.93;;;17.50;99.90;;;;;;1882317;75;21568;-74
2021/06/08 03:06:37;;;;;;;20.25;11.43;;;17.50;99.90;;;;;;1882291;76;21087;-74
2021/06/08 03:09:05;;;;;;;20.48;10.95;;;17.50;99.90;;;;;;1882537;76;21226;-73
2021/06/08 03:11:32;;;;;;;21.57;11.35;;;17.50;99.90;;;;;;1882507;76;21168;-74
2021/06/08 03:13:58;;;;;;;19.95;10.82;;;17.60;99.90;;;;;;1882414;76;21058;-74
2021/06/08 03:16:24;;;;;;;31.57;10.53;;;17.50;99.90;;;;;;1882406;76;21199;-73
2021/06/08 03:18:50;;;;;;;20.12;11.03;;;17.50;99.90;;;;;;1882290;76;21519;-73
2021/06/08 03:21:22;;;;;;;18.67;10.05;;;17.50;99.90;;;;;;1882527;76;21101;-73
2021/06/08 03:23:48;;;;;;;20.68;11.22;;;17.60;99.90;;;;;;1882530;76;21494;-74
2021/06/08 03:26:17;;;;;;;17.25;10.28;;;17.50;99.90;;;;;;1882442;75;21671;-73
2021/06/08 03:28:43;;;;;;;19.98;11.00;;;17.50;99.90;;;;;;1882492;76;21085;-73
2021/06/08 03:31:09;;;;;;;21.68;11.65;;;17.50;99.90;;;;;;1882568;76;21086;-73
2021/06/08 03:33:35;;;;;;;20.88;10.85;;;17.50;99.90;;;;;;1882316;76;21114;-74
2021/06/08 03:36:01;;;;;;;22.65;11.35;;;17.50;99.90;;;;;;1882440;76;21148;-73
2021/06/08 03:38:33;;;;;;;19.90;10.58;;;17.50;99.90;;;;;;1882419;76;21090;-73
2021/06/08 03:41:06;;;;;;;17.07;10.65;;;17.50;99.90;;;;;;1882326;76;21119;-74
2021/06/08 03:43:32;;;;;;;20.45;11.18;;;17.50;99.90;;;;;;1882252;75;21164;-73
2021/06/08 03:45:58;;;;;;;30.17;10.88;;;17.50;99.90;;;;;;1882625;76;21059;-72
2021/06/08 03:48:24;;;;;;;19.48;11.03;;;17.40;99.90;;;;;;1882355;76;21247;-73
2021/06/08 03:50:50;;;;;;;19.57;11.30;;;17.50;99.90;;;;;;1882481;76;21086;-73
2021/06/08 03:53:17;;;;;;;20.65;11.78;;;17.40;99.90;;;;;;1882388;76;21115;-73
2021/06/08 03:55:43;;;;;;;23.75;11.88;;;17.40;99.90;;;;;;1882621;76;21086;-74
2021/06/08 03:58:13;;;;;;;18.05;11.05;;;17.50;99.90;;;;;;1882455;75;21118;-72
2021/06/08 04:00:40;;;;;;;20.62;11.48;;;17.50;99.90;;;;;;1882374;76;21562;-73
2021/06/08 04:03:06;;;;;;;24.67;11.65;;;17.40;99.90;;;;;;1882489;76;21094;-73
2021/06/08 04:05:37;;;;;;;19.48;10.80;;;17.50;99.90;;;;;;1882561;76;21156;-73
2021/06/08 04:08:00;;;;;;;21.48;11.40;;;17.50;99.90;;;;;;1881989;75;21185;-73
2021/06/08 04:10:26;;;;;;;21.12;11.57;;;17.50;99.90;;;;;;1880754;76;21090;-73
2021/06/08 04:12:56;;;;;;;21.87;11.05;;;17.50;99.90;;;;;;1882410;76;21448;-75
2021/06/08 04:15:26;;;;;;;16.82;9.85;;;17.50;99.90;;;;;;1882562;76;21047;-73
2021/06/08 04:17:51;;;;;;;17.98;10.55;;;17.50;99.90;;;;;;1881714;75;21095;-74
2021/06/08 04:20:17;;;;;;;22.80;11.08;;;17.50;99.90;;;;;;1882338;76;21628;-74
2021/06/08 04:22:46;;;;;;;20.48;11.38;;;17.60;99.90;;;;;;1882394;76;21546;-74
2021/06/08 04:25:11;;;;;;;21.87;11.30;;;17.60;99.90;;;;;;1882254;75;21118;-73
2021/06/08 04:27:37;;;;;;;28.23;10.93;;;17.60;99.90;;;;;;1882438;75;21208;-75
2021/06/08 04:30:04;;;;;;;21.77;11.75;;;17.60;99.90;;;;;;1882381;75;21090;-74
2021/06/08 04:32:32;;;;;;;25.70;11.57;;;17.60;99.90;;;;;;1882418;76;21126;-75
2021/06/08 04:34:58;;;;;;;28.65;11.00;;;17.50;99.90;;;;;;1882228;75;21554;-76
2021/06/08 04:37:24;;;;;;;20.77;10.58;;;17.60;99.90;;;;;;1882312;76;21541;-75
2021/06/08 04:39:50;;;;;;;23.80;12.47;;;17.60;99.90;;;;;;1882226;76;21527;-75
2021/06/08 04:42:16;;;;;;;23.20;12.00;;;17.60;99.90;;;;;;1880689;76;21475;-75
2021/06/08 04:44:42;;;;;;;18.75;11.60;;;17.50;99.90;;;;;;1882218;76;21611;-75
2021/06/08 04:47:08;;;;;;;24.50;11.97;;;17.50;99.90;;;;;;1882403;75;21157;-75
2021/06/08 04:49:34;;;;;;;21.48;11.85;;;17.60;99.90;;;;;;1880655;76;21201;-75
2021/06/08 04:52:01;;;;;;;22.42;11.55;;;17.60;99.90;;;;;;1882200;76;21070;-73
2021/06/08 04:54:27;;;;;;;19.60;11.63;;;17.80;99.90;;;;;;1880700;76;21082;-76
2021/06/08 04:56:53;;;;;;;27.95;11.18;;;17.70;99.90;;;;;;1882530;76;21078;-76
2021/06/08 04:59:19;;;;;;;18.98;10.85;;;17.80;99.90;;;;;;1882478;76;21144;-76
2021/06/08 05:01:45;;;;;;;24.07;11.78;;;17.80;99.90;;;;;;1882633;76;21074;-75
2021/06/08 05:04:11;;;;;;;25.88;10.58;;;17.70;99.90;;;;;;1882596;76;21073;-78
2021/06/08 05:06:37;;;;;;;21.48;11.28;;;17.80;99.90;;;;;;1882732;76;21047;-76
2021/06/08 05:09:03;;;;;;;21.52;9.70;;;17.80;99.90;;;;;;1882550;76;21128;-75
2021/06/08 05:11:30;;;;;;;14.95;9.60;;;17.90;99.90;;;;;;1882381;76;21110;-76
2021/06/08 05:13:56;;;;;;;18.10;10.18;;;18.00;99.90;;;;;;1882643;76;21055;-75
2021/06/08 05:16:23;;;;;;;18.27;10.48;;;17.90;99.90;;;;;;1882394;75;21080;-76
2021/06/08 05:18:49;;;;;;;17.32;10.32;;;18.00;99.90;;;;;;1882561;76;21143;-79
2021/06/08 05:21:16;;;;;;;16.95;9.43;;;18.10;99.90;;;;;;1882593;76;21082;-74
2021/06/08 05:23:42;;;;;;;18.02;10.20;;;18.00;99.90;;;;;;1882494;76;21074;-76
2021/06/08 05:26:08;;;;;;;17.65;9.45;;;18.10;99.90;;;;;;1884113;76;21156;-83
2021/06/08 05:28:34;;;;;;;14.50;9.28;;;18.10;99.90;;;;;;1885907;76;21036;-75
2021/06/08 05:31:00;;;;;;;21.33;9.43;;;18.20;99.90;;;;;;1883089;76;21419;-77
2021/06/08 05:33:26;;;;;;;20.65;10.08;;;18.20;99.90;;;;;;1882316;76;21458;-77
2021/06/08 05:35:53;;;;;;;22.02;10.80;;;18.10;99.90;;;;;;1882530;76;21525;-77
2021/06/08 05:38:19;;;;;;;18.87;11.35;;;18.10;99.90;;;;;;1882553;76;21457;-76
2021/06/08 05:40:45;;;;;;;23.98;10.60;;;18.20;99.90;;;;;;1882345;76;21192;-78
2021/06/08 05:43:11;;;;;;;20.00;11.12;;;18.10;99.90;;;;;;1882652;76;21043;-78
2021/06/08 05:45:37;;;;;;;24.30;12.73;;;18.10;99.90;;;;;;1882286;76;21083;-78
2021/06/08 05:48:03;;;;;;;23.55;11.63;;;18.00;99.90;;;;;;1882473;76;21187;-78
2021/06/08 05:50:29;;;;;;;17.20;10.58;;;17.90;99.90;;;;;;1882485;76;21036;-77
2021/06/08 05:52:56;;;;;;;19.80;10.68;;;18.00;99.90;;;;;;1882439;76;21121;-78
2021/06/08 05:55:23;;;;;;;19.45;10.40;;;18.10;99.90;;;;;;1882525;76;21487;-77
2021/06/08 05:57:50;;;;;;;18.77;10.08;;;18.20;99.90;;;;;;1882358;76;21090;-77
2021/06/08 06:00:16;;;;;;;16.12;9.70;;;18.20;99.90;;;;;;1882571;76;21121;-78
2021/06/08 06:02:42;;;;;;;17.02;9.48;;;18.20;99.90;;;;;;1882462;76;21074;-78
2021/06/08 06:05:08;;;;;;;20.82;9.73;;;18.40;99.90;;;;;;1882477;76;21090;-78
2021/06/08 06:07:34;;;;;;;21.45;9.68;;;18.50;99.90;;;;;;1882426;76;21043;-78
2021/06/08 06:10:00;;;;;;;21.45;10.75;;;18.50;99.90;;;;;;1882539;76;21070;-78
2021/06/08 06:12:26;;;;;;;16.55;9.73;;;18.50;99.90;;;;;;1882367;75;21079;-78
2021/06/08 06:14:54;;;;;;;15.45;9.23;;;18.40;99.90;;;;;;1882450;76;21081;-78
2021/06/08 06:17:20;;;;;;;17.57;10.15;;;18.40;99.90;;;;;;1882465;75;21150;-78
2021/06/08 06:19:46;;;;;;;17.45;9.70;;;18.30;99.90;;;;;;1882572;76;21078;-78
2021/06/08 06:22:12;;;;;;;21.40;9.38;;;18.40;99.90;;;;;;1882510;76;21086;-77
2021/06/08 06:24:38;;;;;;;17.77;10.38;;;18.30;99.90;;;;;;1882506;76;21051;-76
2021/06/08 06:27:04;;;;;;;19.23;10.32;;;18.30;99.90;;;;;;1882837;76;21070;-75
2021/06/08 06:29:31;;;;;;;16.65;9.75;;;18.10;99.90;;;;;;1882481;76;21090;-76
2021/06/08 06:31:57;;;;;;;17.67;9.23;;;18.30;99.90;;;;;;1882527;76;21086;-76
2021/06/08 06:34:24;;;;;;;21.62;9.60;;;18.30;99.90;;;;;;1879555;75;21171;-76
2021/06/08 06:36:51;;;;;;;21.57;10.93;;;18.40;99.90;;;;;;1883329;76;21101;-75
2021/06/08 06:39:17;;;;;;;15.38;9.63;;;18.30;99.90;;;;;;1884661;76;21071;-76
2021/06/08 06:41:43;;;;;;;19.35;9.95;;;18.20;99.90;;;;;;1884777;76;21056;-76
2021/06/08 06:44:09;;;;;;;20.25;10.78;;;18.20;99.90;;;;;;1884548;76;21096;-78
2021/06/08 06:46:35;;;;;;;19.15;9.75;;;18.20;99.90;;;;;;1884986;76;21419;-78
2021/06/08 06:49:01;;;;;;;17.23;9.68;;;18.30;99.90;;;;;;1885028;76;21047;-79
2021/06/08 06:51:29;;;;;;;18.75;9.75;;;18.40;99.90;;;;;;1885065;76;21138;-78
2021/06/08 06:53:55;;;;;;;19.55;9.60;;;18.50;99.90;;;;;;1885334;76;21126;-78
2021/06/08 06:56:22;;;;;;;19.87;9.50;;;18.70;99.90;;;;;;1880770;76;21059;-78
2021/06/08 06:58:48;;;;;;;18.52;10.48;;;18.60;99.90;;;;;;1863302;76;21072;-84
2021/06/08 07:01:14;;;;;;;22.30;10.43;;;18.60;99.90;;;;;;1874093;76;21051;-80
2021/06/08 07:03:40;;;;;;;18.40;10.45;;;18.60;99.90;;;;;;1879976;75;21098;-83
2021/06/08 07:06:06;;;;;;;18.77;11.03;;;18.50;99.90;;;;;;1882608;76;21129;-82
2021/06/08 07:08:33;;;;;;;19.23;10.30;;;18.30;99.90;;;;;;1877142;76;21083;-79
2021/06/08 07:10:59;;;;;;;21.77;10.90;;;18.40;99.90;;;;;;1919152;75;21039;-76
2021/06/08 07:13:26;;;;;;;22.60;10.72;;;18.50;99.90;;;;;;1918333;73;21039;-76
2021/06/08 07:15:52;;;;;;;20.27;10.53;;;18.50;99.90;;;;;;1917015;75;21114;-83
2021/06/08 07:18:18;;;;;;;20.57;11.08;;;18.60;99.90;;;;;;1917070;73;21109;-78
2021/06/08 07:20:44;;;;;;;20.10;10.68;;;18.70;99.90;;;;;;1917061;73;21173;-81
2021/06/08 07:23:16;;;;;;;24.63;10.98;;;18.70;99.90;;;;;;1917095;73;21103;-81
2021/06/08 07:25:38;;;;;;;17.65;10.00;;;18.60;99.90;;;;;;1916804;74;21082;-82
2021/06/08 07:28:05;;;;;;;22.00;11.38;;;18.60;99.90;;;;;;1917064;75;21123;-84
2021/06/08 07:30:32;;;;;;;20.97;10.95;;;18.50;99.90;;;;;;1913149;75;21107;-80
2021/06/08 07:32:59;;;;;;;17.48;10.68;;;18.40;99.90;;;;;;1916897;73;21087;-79
2021/06/08 07:35:25;;;;;;;18.82;10.32;;;18.30;99.90;;;;;;1916908;75;21092;-79
2021/06/08 07:37:51;;;;;;;22.00;11.25;;;18.40;99.90;;;;;;1916925;75;21084;-77
2021/06/08 07:40:17;;;;;;;20.20;10.70;;;18.60;99.90;;;;;;1916811;75;21067;-77
2021/06/08 07:42:43;;;;;;;21.68;10.68;;;18.60;99.90;;;;;;1916813;75;21147;-78
2021/06/08 07:45:09;;;;;;;19.15;9.83;;;18.70;99.90;;;;;;1916873;75;21035;-79
2021/06/08 07:47:36;;;;;;;23.18;11.75;;;18.80;99.90;;;;;;1916950;75;21161;-78
2021/06/08 07:50:02;;;;;;;19.42;10.75;;;18.90;99.90;;;;;;1916836;75;21075;-79
2021/06/08 07:52:28;;;;;;;18.10;10.43;;;19.00;99.90;;;;;;1916932;75;21074;-77
2021/06/08 07:54:54;;;;;;;17.17;10.03;;;19.20;99.90;;;;;;1916843;75;21024;-78
2021/06/08 07:57:20;;;;;;;16.55;10.30;;;19.20;99.90;;;;;;1916937;75;21071;-78
2021/06/08 07:59:46;;;;;;;20.95;10.90;;;19.20;99.90;;;;;;1916854;75;21575;-78
2021/06/08 08:02:12;;;;;;;18.15;10.38;;;19.10;99.90;;;;;;1916975;75;21068;-77
2021/06/08 08:04:39;;;;;;;14.28;9.58;;;19.00;99.90;;;;;;1917446;75;21122;-77
2021/06/08 08:07:05;;;;;;;19.32;10.50;;;19.10;99.90;;;;;;1917349;73;21152;-78
2021/06/08 08:09:31;;;;;;;17.37;9.75;;;19.10;99.90;;;;;;1917395;73;21058;-77
2021/06/08 08:11:57;;;;;;;22.05;10.93;;;19.20;99.90;;;;;;1916876;75;21098;-78
2021/06/08 08:14:23;;;;;;;21.40;11.83;;;19.10;99.90;;;;;;1917032;73;21091;-77
2021/06/08 08:16:49;;;;;;;19.92;11.12;;;18.80;99.90;;;;;;1916851;75;21062;-78
2021/06/08 08:19:16;;;;;;;26.45;11.20;;;18.80;99.90;;;;;;1918094;75;21063;-76
2021/06/08 08:21:42;;;;;;;18.17;11.20;;;18.70;99.90;;;;;;1918520;73;21372;-79
2021/06/08 08:24:08;;;;;;;19.57;10.78;;;18.70;99.90;;;;;;1916905;75;21494;-76
2021/06/08 08:26:34;;;;;;;18.70;10.32;;;19.00;99.90;;;;;;1916958;75;21071;-77
2021/06/08 08:29:03;;;;;;;27.85;12.58;;;18.90;99.90;;;;;;1916878;75;21059;-78
2021/06/08 08:31:32;;;;;;;20.12;11.53;;;18.80;99.90;;;;;;1916710;74;21084;-78
2021/06/08 08:33:58;;;;;;;22.82;11.60;;;18.80;99.90;;;;;;1917037;75;21101;-78
2021/06/08 08:36:24;;;;;;;19.90;10.75;;;19.00;99.90;;;;;;1916826;75;21066;-77
2021/06/08 08:44:10;;;;;;;24.65;10.70;;;19.70;99.90;;;;;;1939838;72;21069;-76
2021/06/08 08:46:36;;;;;;;22.25;10.98;;;20.00;99.90;;;;;;1950844;72;21029;-77
2021/06/08 08:49:02;;;;;;;28.90;11.78;;;20.20;99.90;;;;;;1950806;72;21121;-77
2021/06/08 08:51:28;;;;;;;16.25;10.40;;;20.00;99.90;;;;;;1950848;73;21057;-77
2021/06/08 08:53:54;;;;;;;16.97;10.15;;;20.10;99.90;;;;;;1950832;73;20998;-78
2021/06/08 08:56:20;;;;;;;17.27;10.43;;;20.10;99.90;;;;;;1950744;73;21060;-75
2021/06/08 08:58:46;;;;;;;20.90;10.10;;;20.20;99.90;;;;;;1950632;73;21130;-76
2021/06/08 09:01:13;;;;;;;18.98;10.43;;;20.00;99.90;;;;;;1950734;73;21025;-78
2021/06/08 09:03:39;;;;;;;19.37;10.35;;;20.10;99.90;;;;;;1950851;73;21112;-77
2021/06/08 09:06:05;;;;;;;18.45;10.00;;;20.10;99.90;;;;;;1950693;73;21137;-77
2021/06/08 09:08:31;;;;;;;23.05;10.15;;;20.00;99.90;;;;;;1950845;72;21056;-77
2021/06/08 09:10:59;;;;;;;16.07;10.18;;;20.00;99.90;;;;;;1950897;73;21134;-77
2021/06/08 09:13:26;;;;;;;19.92;9.95;;;20.10;99.90;;;;;;1951195;72;21088;-76
2021/06/08 09:15:52;;;;;;;20.25;10.58;;;20.30;99.90;;;;;;1951089;72;21126;-77
2021/06/08 09:18:20;;;;;;;18.57;10.65;;;20.80;99.90;;;;;;1952037;73;21120;-77
2021/06/08 09:20:46;;;;;;;16.95;10.40;;;20.80;99.90;;;;;;1951086;73;21056;-75
2021/06/08 09:23:12;;;;;;;20.08;11.25;;;20.90;99.90;;;;;;1951248;73;21079;-77
2021/06/08 09:25:38;;;;;;;20.60;10.75;;;20.70;99.90;;;;;;1950821;73;21091;-77
2021/06/08 09:28:06;;;;;;;21.50;11.83;;;20.80;99.90;;;;;;1950851;73;21052;-75
2021/06/08 09:30:32;;;;;;;19.05;10.20;;;21.00;99.90;;;;;;1951016;73;21068;-75
2021/06/08 09:32:58;;;;;;;24.90;10.10;;;21.10;99.90;;;;;;1951217;73;21129;-75
2021/06/08 09:35:25;;;;;;;19.10;10.98;;;21.30;99.90;;;;;;1950930;73;21051;-74
2021/06/08 09:37:51;;;;;;;20.97;11.25;;;20.90;99.90;;;;;;1950859;72;21053;-75
2021/06/08 09:40:17;;;;;;;18.15;10.75;;;20.70;99.90;;;;;;1951055;72;21057;-75
2021/06/08 09:42:43;;;;;;;19.37;11.30;;;21.00;99.90;;;;;;1951241;73;21125;-73
2021/06/08 09:45:10;;;;;;;17.67;9.88;;;20.90;99.90;;;;;;1951232;73;21537;-75
2021/06/08 09:47:36;;;;;;;17.52;10.43;;;21.00;99.90;;;;;;1950930;73;21487;-76
2021/06/08 09:50:02;;;;;;;19.60;11.50;;;21.00;99.90;;;;;;1951131;73;21448;-77
2021/06/08 09:52:28;;;;;;;20.15;11.05;;;20.90;99.90;;;;;;1951368;73;21491;-76
2021/06/08 09:54:54;;;;;;;20.25;10.55;;;20.90;99.90;;;;;;1951015;73;21464;-76
2021/06/08 09:57:21;;;;;;;18.35;10.30;;;20.90;99.90;;;;;;1951310;73;21492;-76
2021/06/08 09:59:47;;;;;;;19.42;11.05;;;20.90;99.90;;;;;;1952112;72;21076;-75
2021/06/08 10:02:13;;;;;;;25.60;11.57;;;20.90;99.90;;;;;;1950851;73;21061;-76
2021/06/08 10:04:39;;;;;;;20.48;11.10;;;20.80;99.90;;;;;;1950816;72;21101;-76
2021/06/08 10:07:05;;;;;;;19.87;10.93;;;20.90;99.90;;;;;;1951113;73;21060;-75
2021/06/08 10:09:31;;;;;;;24.12;10.43;;;20.70;99.90;;;;;;1951191;73;21096;-76
2021/06/08 10:11:58;;;;;;;19.52;10.40;;;21.10;99.90;;;;;;1953128;73;21496;-77
2021/06/08 10:14:25;;;;;;;21.55;10.75;;;21.30;99.90;;;;;;1955101;72;21031;-76
2021/06/08 10:16:51;;;;;;;19.52;10.60;;;21.30;99.90;;;;;;1955656;72;21010;-77
2021/06/08 10:19:17;;;;;;;16.75;9.85;;;21.40;99.90;;;;;;1952451;73;21036;-77
2021/06/08 10:21:48;;;;;;;18.92;10.75;;;21.50;99.90;;;;;;1953072;72;21044;-77
2021/06/08 10:24:11;;;;;;;18.57;9.18;;;21.50;99.90;;;;;;1950884;73;21068;-77
2021/06/08 10:26:40;;;;;;;14.25;9.90;;;21.70;99.90;;;;;;1951843;73;21029;-76
2021/06/08 10:29:06;;;;;;;20.97;10.70;;;21.60;99.90;;;;;;1952230;72;21065;-77
2021/06/08 10:31:32;;;;;;;22.90;10.08;;;21.60;99.90;;;;;;1951063;73;21064;-78
2021/06/08 10:33:58;;;;;;;17.50;9.95;;;21.80;99.90;;;;;;1951407;73;21087;-78
2021/06/08 10:36:24;;;;;;;19.90;9.48;;;22.10;99.90;;;;;;1950961;73;21499;-76
2021/06/08 10:38:51;;;;;;;19.35;10.05;;;22.60;99.90;;;;;;1950967;73;21388;-76
2021/06/08 10:41:17;;;;;;;15.40;9.65;;;22.90;99.90;;;;;;1951280;72;21564;-76
2021/06/08 10:43:43;;;;;;;16.80;9.50;;;22.60;99.90;;;;;;1951759;73;21459;-75
2021/06/08 10:46:09;;;;;;;18.02;9.68;;;22.50;99.90;;;;;;1951014;73;21527;-75
2021/06/08 10:48:40;;;;;;;20.50;10.88;;;22.60;99.90;;;;;;1950974;73;21444;-76
2021/06/08 10:51:06;;;;;;;17.55;9.75;;;22.00;99.90;;;;;;1950980;72;21070;-76
2021/06/08 10:53:32;;;;;;;14.80;9.20;;;22.10;99.90;;;;;;1951182;72;21126;-76
2021/06/08 10:55:58;;;;;;;23.90;9.28;;;22.40;99.90;;;;;;1951000;73;21061;-76
2021/06/08 10:58:24;;;;;;;18.90;10.05;;;22.60;99.90;;;;;;1951030;73;21025;-76
2021/06/08 11:00:52;;;;;;;16.85;9.93;;;22.90;99.90;;;;;;1951037;73;21134;-76
2021/06/08 11:03:18;;;;;;;19.57;9.70;;;22.90;99.90;;;;;;1951468;73;21065;-79
2021/06/08 11:05:44;;;;;;;20.20;10.35;;;22.80;99.90;;;;;;1951135;73;21122;-77
2021/06/08 11:08:10;;;;;;;19.65;9.95;;;22.70;99.90;;;;;;1951105;73;21122;-79
2021/06/08 11:10:37;;;;;;;16.77;9.48;;;22.70;99.90;;;;;;1951236;73;21048;-80
2021/06/08 11:13:04;;;;;;;13.58;8.88;;;22.80;99.90;;;;;;1950938;73;21472;-80
2021/06/08 11:15:32;;;;;;;16.02;9.43;;;22.40;99.90;;;;;;1950681;72;21507;-81
2021/06/08 11:17:57;;;;;;;17.57;9.65;;;22.60;99.90;;;;;;1950647;73;21060;-80
2021/06/08 11:20:26;;;;;;;17.92;9.80;;;22.50;99.90;;;;;;1951132;73;21048;-80
2021/06/08 11:22:52;;;;;;;19.67;9.58;;;22.20;99.90;;;;;;1951224;73;21158;-81
2021/06/08 11:25:18;;;;;;;17.23;9.98;;;22.40;99.90;;;;;;1951082;73;21079;-80
2021/06/08 11:27:44;;;;;;;18.70;9.33;;;22.80;99.90;;;;;;1951153;73;21049;-80
2021/06/08 11:30:10;;;;;;;23.40;9.85;;;22.90;99.90;;;;;;1951123;73;21103;-80
2021/06/08 11:32:37;;;;;;;26.52;10.13;;;22.80;99.90;;;;;;1951071;73;21057;-80
2021/06/08 11:35:03;;;;;;;18.12;9.65;;;22.80;99.90;;;;;;1951050;73;21033;-76
2021/06/08 11:37:29;;;;;;;17.73;9.95;;;23.20;99.90;;;;;;1950934;73;21063;-76
2021/06/08 11:39:56;;;;;;;21.17;10.40;;;23.10;99.90;;;;;;1950774;73;21118;-76
2021/06/08 11:42:22;;;;;;;18.05;9.70;;;23.20;99.90;;;;;;1951541;73;21052;-76
2021/06/08 11:44:50;;;;;;;13.98;9.15;;;23.50;99.90;;;;;;1951731;73;21126;-76
2021/06/08 11:47:16;;;;;;;15.25;9.25;;;23.80;99.90;;;;;;1951158;72;21534;-76
2021/06/08 11:49:42;;;;;;;20.12;9.90;;;24.00;99.90;;;;;;1950972;73;21114;-76
2021/06/08 11:52:13;;;;;;;15.65;8.68;;;23.40;99.90;;;;;;1951206;73;21021;-76
2021/06/08 11:54:39;;;;;;;16.27;8.83;;;23.70;99.90;;;;;;1951276;73;21073;-77
2021/06/08 11:57:05;;;;;;;12.50;7.47;;;24.00;99.90;;;;;;1950912;73;21017;-77
2021/06/08 11:59:31;;;;;;;13.72;8.13;;;24.40;99.90;;;;;;1950995;73;21549;-77
2021/06/08 12:01:57;;;;;;;17.35;9.13;;;24.70;99.90;;;;;;1951100;73;21480;-77
2021/06/08 12:04:25;;;;;;;17.27;9.00;;;24.20;99.90;;;;;;1951129;72;21441;-76
2021/06/08 12:06:51;;;;;;;16.45;9.38;;;24.10;99.90;;;;;;1951109;73;21072;-76
2021/06/08 12:09:17;;;;;;;11.35;8.00;;;24.30;99.90;;;;;;1950925;73;21053;-76
2021/06/08 12:11:43;;;;;;;15.70;8.70;;;24.20;99.90;;;;;;1951495;73;21048;-77
2021/06/08 12:14:10;;;;;;;13.70;8.73;;;24.60;99.90;;;;;;1951155;73;21069;-78
2021/06/08 12:16:36;;;;;;;14.03;8.28;;;25.00;99.90;;;;;;1951279;73;21052;-77
2021/06/08 12:19:02;;;;;;;11.60;7.62;;;25.40;99.90;;;;;;1951352;73;21053;-77
2021/06/08 12:21:28;;;;;;;15.60;7.97;;;25.00;99.90;;;;;;1951176;73;21026;-78
2021/06/08 12:23:59;;;;;;;12.80;7.45;;;25.00;99.90;;;;;;1950802;72;21060;-77
2021/06/08 12:26:29;;;;;;;15.53;7.92;;;25.10;99.90;;;;;;1951624;73;21451;-77
2021/06/08 12:28:57;;;;;;;11.95;7.80;;;24.30;99.90;;;;;;1950742;73;21068;-78
2021/06/08 12:31:21;;;;;;;14.20;7.47;;;24.10;99.90;;;;;;1949841;73;21070;-77
2021/06/08 12:33:47;;;;;;;14.87;7.85;;;24.00;99.90;;;;;;1951134;73;21029;-78